createdAt,value
2018-12-14T00:01:30.193Z,9.63
2018-12-14T00:04:04.519Z,9.00
2018-12-14T00:06:38.785Z,9.23
2018-12-14T00:09:13.096Z,9.50
2018-12-14T00:11:47.409Z,9.30
2018-12-14T00:14:21.682Z,8.47
2018-12-14T00:16:55.991Z,9.80
2018-12-14T00:19:30.262Z,9.17
2018-12-14T00:22:04.808Z,8.97
2018-12-14T00:24:39.166Z,9.00
2018-12-14T00:27:13.574Z,9.03
2018-12-14T00:29:47.981Z,8.70
2018-12-14T00:32:22.511Z,8.90
2018-12-14T00:34:56.771Z,9.13
2018-12-14T00:37:31.074Z,9.17
2018-12-14T00:40:05.456Z,8.93
2018-12-14T00:42:39.725Z,10.30
2018-12-14T00:45:13.996Z,8.93
2018-12-14T00:47:48.271Z,8.87
2018-12-14T00:50:22.536Z,9.07
2018-12-14T00:52:56.806Z,8.23
2018-12-14T00:55:31.093Z,9.70
2018-12-14T00:58:05.370Z,9.37
2018-12-14T01:00:39.656Z,8.60
2018-12-14T01:03:13.941Z,8.93
2018-12-14T01:05:48.262Z,9.00
2018-12-14T01:08:22.560Z,8.50
2018-12-14T01:10:56.944Z,9.27
2018-12-14T01:13:31.313Z,8.13
2018-12-14T01:16:05.603Z,8.43
2018-12-14T01:18:40.184Z,9.33
2018-12-14T01:21:14.691Z,8.53
2018-12-14T01:23:49.028Z,8.17
2018-12-14T01:26:23.281Z,8.67
2018-12-14T01:28:57.533Z,9.23
2018-12-14T01:31:31.807Z,8.80
2018-12-14T01:34:06.067Z,7.93
2018-12-14T01:36:40.416Z,8.93
2018-12-14T01:39:14.712Z,8.50
2018-12-14T01:41:49.007Z,9.33
2018-12-14T01:44:23.396Z,8.37
2018-12-14T01:46:57.703Z,8.43
2018-12-14T01:49:32.030Z,8.27
2018-12-14T01:52:06.267Z,8.73
2018-12-14T01:54:40.572Z,8.73
2018-12-14T01:57:14.812Z,8.83
2018-12-14T01:59:49.076Z,8.40
2018-12-14T02:02:23.380Z,8.70
2018-12-14T02:04:57.700Z,8.53
2018-12-14T02:07:32.008Z,9.10
2018-12-14T02:10:06.602Z,7.43
2018-12-14T02:12:40.894Z,8.23
2018-12-14T02:15:15.235Z,7.80
2018-12-14T02:17:55.987Z,8.27
2018-12-14T02:20:30.340Z,8.90
2018-12-14T02:23:04.580Z,9.40
2018-12-14T02:25:38.917Z,8.23
2018-12-14T02:28:13.215Z,8.40
2018-12-14T02:30:47.520Z,8.10
2018-12-14T02:33:21.799Z,7.77
2018-12-14T02:35:56.033Z,8.40
2018-12-14T02:38:30.409Z,8.00
2018-12-14T02:41:04.710Z,7.83
2018-12-14T02:43:39.118Z,7.33
2018-12-14T02:46:13.434Z,7.67
2018-12-14T02:48:47.721Z,8.30
2018-12-14T02:51:22.067Z,7.60
2018-12-14T02:53:56.335Z,8.10
2018-12-14T02:56:30.587Z,7.60
2018-12-14T02:59:04.886Z,7.27
2018-12-14T03:01:39.190Z,8.27
2018-12-14T03:04:13.480Z,7.73
2018-12-14T03:06:47.759Z,7.53
2018-12-14T03:09:22.406Z,7.77
2018-12-14T03:11:56.707Z,8.70
2018-12-14T03:14:31.020Z,7.43
2018-12-14T03:17:05.559Z,8.97
2018-12-14T03:19:39.999Z,8.33
2018-12-14T03:22:14.870Z,8.17
2018-12-14T03:24:55.720Z,7.73
2018-12-14T03:27:30.241Z,8.60
2018-12-14T03:30:05.432Z,9.20
2018-12-14T03:32:39.861Z,7.87
2018-12-14T03:35:14.160Z,8.33
2018-12-14T03:37:48.451Z,8.20
2018-12-14T03:40:22.829Z,7.63
2018-12-14T03:42:57.127Z,8.17
2018-12-14T03:45:31.408Z,7.43
2018-12-14T03:48:05.807Z,8.87
2018-12-14T03:50:40.076Z,8.40
2018-12-14T03:53:14.401Z,8.23
2018-12-14T03:55:48.712Z,8.70
2018-12-14T03:58:23.279Z,7.40
2018-12-14T04:00:57.580Z,8.07
2018-12-14T04:03:31.974Z,8.07
2018-12-14T04:06:06.278Z,7.90
2018-12-14T04:08:40.568Z,7.70
2018-12-14T04:11:14.960Z,8.23
2018-12-14T04:13:49.397Z,8.13
2018-12-14T04:16:23.675Z,9.43
2018-12-14T04:18:58.105Z,8.63
2018-12-14T04:21:32.526Z,9.13
2018-12-14T04:24:06.870Z,8.00
2018-12-14T04:26:41.199Z,8.73
2018-12-14T04:29:15.470Z,8.30
2018-12-14T04:31:49.743Z,7.67
2018-12-14T04:34:24.031Z,7.70
2018-12-14T04:36:58.302Z,7.83
2018-12-14T04:39:32.593Z,8.43
2018-12-14T04:42:06.900Z,8.03
2018-12-14T04:44:41.400Z,7.67
2018-12-14T04:47:15.812Z,8.40
2018-12-14T04:49:50.319Z,8.83
2018-12-14T04:52:24.721Z,8.77
2018-12-14T04:54:59.130Z,9.47
2018-12-14T04:57:33.510Z,9.20
2018-12-14T05:00:08.582Z,9.03
2018-12-14T05:02:43.015Z,7.93
2018-12-14T05:05:17.346Z,8.53
2018-12-14T05:07:51.642Z,8.50
2018-12-14T05:10:25.924Z,8.63
2018-12-14T05:13:00.238Z,8.37
2018-12-14T05:15:34.839Z,9.07
2018-12-14T05:18:09.121Z,9.37
2018-12-14T05:20:43.441Z,9.27
2018-12-14T05:23:17.703Z,10.23
2018-12-14T05:25:52.047Z,9.53
2018-12-14T05:28:26.336Z,9.50
2018-12-14T05:31:00.710Z,9.93
2018-12-14T05:33:35.011Z,9.47
2018-12-14T05:36:09.440Z,11.13
2018-12-14T05:38:43.750Z,9.53
2018-12-14T05:41:18.086Z,11.30
2018-12-14T05:43:52.393Z,9.57
2018-12-14T05:46:27.069Z,10.90
2018-12-14T05:49:01.381Z,10.27
2018-12-14T05:51:35.711Z,11.47
2018-12-14T05:54:09.992Z,10.83
2018-12-14T05:57:01.860Z,10.50
2018-12-14T05:59:36.270Z,9.50
2018-12-14T06:02:10.700Z,10.33
2018-12-14T06:04:45.106Z,9.00
2018-12-14T06:07:19.444Z,9.43
2018-12-14T06:09:53.988Z,10.10
2018-12-14T06:12:29.052Z,10.63
2018-12-14T06:15:03.474Z,10.10
2018-12-14T06:17:37.811Z,9.60
2018-12-14T06:20:13.093Z,10.53
2018-12-14T06:22:49.682Z,9.77
2018-12-14T06:25:24.422Z,9.97
2018-12-14T06:27:58.718Z,9.97
2018-12-14T06:30:32.987Z,11.03
2018-12-14T06:33:07.264Z,10.10
2018-12-14T06:35:41.510Z,9.27
2018-12-14T06:38:32.342Z,10.80
2018-12-14T06:41:06.636Z,10.13
2018-12-14T06:43:41.035Z,9.57
2018-12-14T06:46:15.311Z,9.27
2018-12-14T06:48:49.596Z,9.27
2018-12-14T06:51:23.871Z,9.10
2018-12-14T06:53:58.133Z,9.90
2018-12-14T06:56:33.148Z,9.40
2018-12-14T06:59:07.532Z,10.47
2018-12-14T07:01:41.810Z,9.90
2018-12-14T07:04:16.059Z,9.57
2018-12-14T07:06:50.438Z,9.20
2018-12-14T07:09:24.725Z,8.33
2018-12-14T07:12:15.588Z,10.40
2018-12-14T07:14:49.921Z,9.43
2018-12-14T07:17:24.336Z,9.20
2018-12-14T07:19:58.676Z,9.03
2018-12-14T07:22:32.928Z,11.43
2018-12-14T07:25:07.250Z,10.90
2018-12-14T07:27:41.473Z,11.03
2018-12-14T07:30:15.791Z,9.73
2018-12-14T07:32:50.470Z,9.43
2018-12-14T07:35:24.748Z,12.37
2018-12-14T07:38:03.569Z,14.47
2018-12-14T07:40:37.846Z,14.53
2018-12-14T07:43:12.228Z,10.20
2018-12-14T07:46:03.139Z,9.37
2018-12-14T07:48:37.439Z,9.93
2018-12-14T07:51:11.772Z,10.00
2018-12-14T07:53:46.079Z,10.90
2018-12-14T07:56:20.418Z,10.17
2018-12-14T07:58:55.065Z,10.80
2018-12-14T08:01:29.397Z,11.67
2018-12-14T08:04:03.651Z,11.60
2018-12-14T08:06:38.093Z,12.20
2018-12-14T08:09:12.342Z,11.10
2018-12-14T08:11:46.617Z,10.73
2018-12-14T08:14:20.914Z,10.97
2018-12-14T08:17:00.240Z,11.33
2018-12-14T08:22:20.051Z,10.53
2018-12-14T08:24:54.276Z,10.00
2018-12-14T08:27:28.607Z,12.23
2018-12-14T08:30:19.331Z,11.40
2018-12-14T08:32:53.658Z,10.33
2018-12-14T08:35:28.267Z,12.93
2018-12-14T08:38:02.805Z,12.73
2018-12-14T08:40:37.090Z,12.53
2018-12-14T08:43:11.352Z,11.27
2018-12-14T08:45:45.659Z,10.83
2018-12-14T08:48:19.948Z,10.63
2018-12-14T08:50:54.466Z,10.97
2018-12-14T08:53:28.995Z,11.60
2018-12-14T08:56:03.532Z,10.93
2018-12-14T08:58:37.919Z,10.10
2018-12-14T09:01:12.279Z,10.70
2018-12-14T09:03:52.561Z,11.00
2018-12-14T09:06:27.032Z,11.50
2018-12-14T09:09:18.684Z,11.47
2018-12-14T09:11:53.272Z,10.37
2018-12-14T09:14:27.803Z,10.80
2018-12-14T09:17:02.258Z,10.33
2018-12-14T09:19:41.280Z,10.20
2018-12-14T09:22:15.674Z,10.23
2018-12-14T09:24:50.015Z,11.03
2018-12-14T09:27:24.300Z,11.70
2018-12-14T09:29:58.639Z,11.00
2018-12-14T09:32:33.017Z,11.63
2018-12-14T09:35:07.856Z,10.70
2018-12-14T09:37:42.157Z,11.60
2018-12-14T09:40:16.466Z,13.17
2018-12-14T09:42:53.598Z,13.33
2018-12-14T09:45:32.222Z,12.13
2018-12-14T09:48:10.488Z,11.77
2018-12-14T09:54:00.973Z,12.37
2018-12-14T09:56:38.824Z,10.40
2018-12-14T09:59:13.335Z,10.60
2018-12-14T10:01:48.032Z,12.33
2018-12-14T10:04:26.400Z,10.90
2018-12-14T10:07:12.214Z,10.63
2018-12-14T10:09:46.582Z,11.90
2018-12-14T10:12:20.939Z,11.63
2018-12-14T10:14:55.231Z,11.50
2018-12-14T10:17:29.666Z,11.80
2018-12-14T10:20:04.208Z,10.70
2018-12-14T10:22:41.538Z,10.73
2018-12-14T10:25:15.216Z,10.90
2018-12-14T10:27:51.554Z,10.80
2018-12-14T10:30:27.241Z,10.30
2018-12-14T10:33:01.850Z,9.87
2018-12-14T10:35:36.632Z,9.63
2018-12-14T10:38:13.729Z,10.47
2018-12-14T10:41:27.655Z,9.77
2018-12-14T10:44:20.043Z,9.60
2018-12-14T10:50:39.748Z,9.37
2018-12-14T10:53:16.745Z,8.27
2018-12-14T11:02:29.220Z,9.10
2018-12-14T11:05:05.542Z,8.13
2018-12-14T11:07:42.102Z,9.67
2018-12-14T11:10:17.754Z,8.20
2018-12-14T11:13:00.792Z,7.50
2018-12-14T11:15:41.603Z,8.37
2018-12-14T11:18:27.588Z,8.20
2018-12-14T11:21:08.837Z,7.73
2018-12-14T11:24:02.822Z,8.13
2018-12-14T12:19:39.927Z,9.13
2018-12-14T12:22:14.310Z,7.83
2018-12-14T12:37:56.472Z,8.43
2018-12-14T12:40:31.544Z,9.83
2018-12-14T12:43:21.249Z,8.83
2018-12-14T13:25:51.301Z,10.87
2018-12-14T13:29:56.494Z,10.33
2018-12-14T13:46:26.187Z,9.83
2018-12-14T13:49:02.942Z,10.20
2018-12-14T13:51:48.227Z,12.60
2018-12-14T13:54:25.027Z,10.40
2018-12-14T13:57:03.329Z,9.60
2018-12-14T13:59:42.003Z,9.97
2018-12-14T14:02:21.458Z,9.50
2018-12-14T14:05:01.424Z,10.37
2018-12-14T14:07:36.773Z,10.87
2018-12-14T14:10:12.300Z,9.57
2018-12-14T14:12:51.931Z,9.70
2018-12-14T14:15:31.338Z,10.13
2018-12-14T14:18:31.085Z,9.77
2018-12-14T14:24:46.169Z,10.23
2018-12-14T14:27:21.215Z,10.10
2018-12-14T14:29:58.601Z,10.20
2018-12-14T14:32:48.750Z,9.60
2018-12-14T14:35:24.929Z,10.53
2018-12-14T14:38:11.288Z,12.10
2018-12-14T14:41:12.289Z,10.17
2018-12-14T14:47:32.645Z,9.97
2018-12-14T14:54:00.508Z,10.13
2018-12-14T14:56:38.660Z,9.57
2018-12-14T14:59:27.876Z,9.67
2018-12-14T15:02:04.714Z,10.20
2018-12-14T15:04:38.978Z,9.27
2018-12-14T15:07:13.247Z,9.23
2018-12-14T15:09:47.809Z,10.10
2018-12-14T15:12:48.251Z,9.93
2018-12-14T15:16:13.217Z,9.03
2018-12-14T16:26:19.903Z,8.43
2018-12-14T16:28:54.417Z,8.87
2018-12-14T16:31:28.790Z,9.27
2018-12-14T16:34:03.180Z,9.23
2018-12-14T16:36:37.505Z,9.80
2018-12-14T16:39:12.228Z,9.13
2018-12-14T16:41:46.521Z,8.60
2018-12-14T16:44:21.084Z,8.93
2018-12-14T16:47:27.070Z,10.10
2018-12-14T17:32:34.642Z,9.30
2018-12-14T17:49:53.573Z,10.10
2018-12-14T17:52:46.558Z,9.27
2018-12-14T17:55:25.608Z,9.40
2018-12-14T19:01:57.702Z,9.20
2018-12-14T19:08:47.146Z,11.53
2018-12-14T19:12:17.793Z,10.40
2018-12-14T19:15:49.071Z,10.30
2018-12-14T20:04:43.571Z,13.57
2018-12-14T22:10:18.415Z,11.40
2018-12-14T22:39:27.844Z,11.90
2018-12-14T23:38:37.310Z,11.47
2018-12-14T23:42:10.037Z,12.37
2018-12-14T23:48:56.146Z,10.83
2018-12-14T23:52:11.728Z,12.17
2018-12-14T23:59:30.926Z,11.90
